createdAt,value
2023-01-13T00:00:36.620Z,0
2023-01-13T00:01:36.358Z,0
2023-01-13T00:02:36.657Z,0
2023-01-13T00:03:36.981Z,0
2023-01-13T00:04:38.633Z,0
2023-01-13T00:05:38.362Z,0
2023-01-13T00:06:40.495Z,0
2023-01-13T00:07:40.287Z,0
2023-01-13T00:08:40.677Z,0
2023-01-13T00:09:41.385Z,0
2023-01-13T00:10:43.354Z,0
2023-01-13T00:11:44.062Z,0
2023-01-13T00:12:44.392Z,0
2023-01-13T00:13:44.795Z,0
2023-01-13T00:14:45.189Z,0
2023-01-13T00:15:46.006Z,0
2023-01-13T00:16:47.011Z,0
2023-01-13T00:17:47.388Z,0
2023-01-13T00:18:48.368Z,0
2023-01-13T00:19:48.461Z,0
2023-01-13T00:20:49.104Z,0
2023-01-13T00:21:49.782Z,0
2023-01-13T00:22:49.777Z,0
2023-01-13T00:23:50.755Z,0
2023-01-13T00:24:50.528Z,0
2023-01-13T00:25:51.548Z,0
2023-01-13T00:26:53.282Z,0
2023-01-13T00:27:54.375Z,0
2023-01-13T00:28:54.349Z,0
2023-01-13T00:29:54.728Z,0
2023-01-13T00:30:55.724Z,0
2023-01-13T00:31:56.193Z,0
2023-01-13T00:32:56.259Z,0
2023-01-13T00:33:57.371Z,0
2023-01-13T00:34:57.428Z,0
2023-01-13T00:35:59.399Z,0
2023-01-13T00:37:00.134Z,0
2023-01-13T00:38:00.489Z,0
2023-01-13T00:39:00.597Z,0
2023-01-13T00:40:01.071Z,0
2023-01-13T00:41:01.430Z,0
2023-01-13T00:42:02.868Z,0
2023-01-13T00:43:04.262Z,0
2023-01-13T00:44:05.319Z,0
2023-01-13T00:45:06.289Z,0
2023-01-13T00:46:07.108Z,0
2023-01-13T00:47:07.633Z,0
2023-01-13T00:48:08.323Z,0
2023-01-13T00:49:09.295Z,0
2023-01-13T00:50:10.024Z,0
2023-01-13T00:51:10.686Z,0
2023-01-13T00:52:11.436Z,0
2023-01-13T00:53:12.566Z,0
2023-01-13T00:54:12.933Z,0
2023-01-13T00:55:14.075Z,0
2023-01-13T00:56:14.529Z,0
2023-01-13T00:57:14.912Z,0
2023-01-13T00:58:15.967Z,0
2023-01-13T00:59:16.671Z,0
2023-01-13T01:00:17.676Z,0
2023-01-13T01:01:19.436Z,0
2023-01-13T01:02:19.857Z,0
2023-01-13T01:03:19.833Z,0
2023-01-13T01:04:20.221Z,0
2023-01-13T01:05:20.282Z,0
2023-01-13T01:06:21.980Z,0
2023-01-13T01:07:22.363Z,0
2023-01-13T01:08:22.731Z,0
2023-01-13T01:09:23.719Z,0
2023-01-13T01:10:24.392Z,0
2023-01-13T01:11:25.089Z,0
2023-01-13T01:12:25.805Z,0
2023-01-13T01:13:26.529Z,0
2023-01-13T01:14:26.908Z,0
2023-01-13T01:15:27.883Z,0
2023-01-13T01:16:29.067Z,0
2023-01-13T01:17:28.182Z,0
2023-01-13T01:18:29.587Z,0
2023-01-13T01:19:30.416Z,0
2023-01-13T01:20:31.142Z,0
2023-01-13T01:21:32.229Z,0
2023-01-13T01:22:32.604Z,0
2023-01-13T01:23:32.975Z,0
2023-01-13T01:24:33.453Z,0
2023-01-13T01:25:33.847Z,0
2023-01-13T01:26:34.234Z,0
2023-01-13T01:27:34.881Z,0
2023-01-13T01:28:35.738Z,0
2023-01-13T01:29:35.698Z,0
2023-01-13T01:30:36.080Z,0
2023-01-13T01:31:37.531Z,0
2023-01-13T01:32:36.253Z,0
2023-01-13T01:33:38.213Z,0
2023-01-13T01:34:38.883Z,0
2023-01-13T01:35:39.570Z,0
2023-01-13T01:36:40.267Z,0
2023-01-13T01:37:40.955Z,0
2023-01-13T01:38:41.635Z,0
2023-01-13T01:39:42.313Z,0
2023-01-13T01:40:42.737Z,0
2023-01-13T01:41:43.145Z,0
2023-01-13T01:42:43.841Z,0
2023-01-13T01:43:44.226Z,0
2023-01-13T01:44:45.184Z,0
2023-01-13T01:45:46.165Z,0
2023-01-13T01:46:47.308Z,0
2023-01-13T01:47:48.032Z,0
2023-01-13T01:48:47.691Z,0
2023-01-13T01:49:48.095Z,0
2023-01-13T01:50:48.791Z,0
2023-01-13T01:51:49.433Z,0
2023-01-13T01:52:50.117Z,0
2023-01-13T01:53:50.716Z,0
2023-01-13T01:54:50.491Z,0
2023-01-13T01:55:52.213Z,0
2023-01-13T01:56:52.892Z,0
2023-01-13T01:57:53.025Z,0
2023-01-13T01:58:53.796Z,0
2023-01-13T01:59:54.776Z,0
2023-01-13T02:00:55.564Z,0
2023-01-13T02:01:56.147Z,0
2023-01-13T02:02:55.457Z,0
2023-01-13T02:03:56.130Z,0
2023-01-13T02:04:56.932Z,0
2023-01-13T02:05:58.621Z,0
2023-01-13T02:06:59.622Z,0
2023-01-13T02:07:59.677Z,0
2023-01-13T02:09:00.704Z,0
2023-01-13T02:10:02.402Z,0
2023-01-13T02:11:03.095Z,0
2023-01-13T02:12:03.178Z,0
2023-01-13T02:13:04.905Z,0
2023-01-13T02:14:05.627Z,0
2023-01-13T02:15:06.279Z,0
2023-01-13T02:16:06.749Z,0
2023-01-13T02:17:07.172Z,0
2023-01-13T02:18:08.006Z,0
2023-01-13T02:19:08.674Z,0
2023-01-13T02:20:09.011Z,0
2023-01-13T02:21:09.762Z,0
2023-01-13T02:22:11.447Z,0
2023-01-13T02:23:11.865Z,0
2023-01-13T02:24:13.216Z,0
2023-01-13T02:25:13.384Z,0
2023-01-13T02:26:14.749Z,0
2023-01-13T02:27:15.354Z,0
2023-01-13T02:28:15.907Z,0
2023-01-13T02:29:16.003Z,0
2023-01-13T02:30:16.709Z,0
2023-01-13T02:31:17.526Z,0
2023-01-13T02:32:18.207Z,0
2023-01-13T02:33:18.919Z,0
2023-01-13T02:34:18.413Z,0
2023-01-13T02:35:19.618Z,0
2023-01-13T02:36:19.822Z,0
2023-01-13T02:37:20.513Z,0
2023-01-13T02:38:20.898Z,0
2023-01-13T02:39:21.920Z,0
2023-01-13T02:40:23.588Z,0
2023-01-13T02:41:24.246Z,0
2023-01-13T02:42:25.161Z,0
2023-01-13T02:43:24.855Z,0
2023-01-13T02:44:26.203Z,0
2023-01-13T02:45:26.621Z,0
2023-01-13T02:46:27.194Z,0
2023-01-13T02:47:27.554Z,0
2023-01-13T02:48:28.670Z,0
2023-01-13T02:49:29.357Z,0
2023-01-13T02:50:30.316Z,0
2023-01-13T02:51:31.005Z,0
2023-01-13T02:52:31.025Z,0
2023-01-13T02:53:32.717Z,0
2023-01-13T02:54:32.727Z,0
2023-01-13T02:55:34.432Z,0
2023-01-13T02:56:34.840Z,0
2023-01-13T02:57:34.878Z,0
2023-01-13T02:58:35.900Z,0
2023-01-13T02:59:36.883Z,0
2023-01-13T03:00:36.815Z,0
2023-01-13T03:01:38.924Z,0
2023-01-13T03:02:38.125Z,0
2023-01-13T03:03:38.770Z,0
2023-01-13T03:04:39.851Z,0
2023-01-13T03:05:40.789Z,0
2023-01-13T03:06:41.019Z,0
2023-01-13T03:07:41.104Z,0
2023-01-13T03:08:42.016Z,0
2023-01-13T03:09:43.210Z,0
2023-01-13T03:10:43.571Z,0
2023-01-13T03:11:44.560Z,0
2023-01-13T03:12:45.482Z,0
2023-01-13T03:13:46.431Z,0
2023-01-13T03:14:47.270Z,0
2023-01-13T03:15:47.754Z,0
2023-01-13T03:16:47.781Z,0
2023-01-13T03:17:47.775Z,0
2023-01-13T03:18:48.976Z,0
2023-01-13T03:19:49.191Z,0
2023-01-13T03:20:49.405Z,0
2023-01-13T03:21:49.028Z,0
2023-01-13T03:22:50.004Z,0
2023-01-13T03:23:50.911Z,0
2023-01-13T03:24:51.985Z,0
2023-01-13T03:25:52.191Z,0
2023-01-13T03:26:53.406Z,0
2023-01-13T03:27:53.346Z,0
2023-01-13T03:28:54.294Z,0
2023-01-13T03:29:54.887Z,0
2023-01-13T03:30:55.329Z,0
2023-01-13T03:31:55.561Z,0
2023-01-13T03:32:56.781Z,0
2023-01-13T03:33:57.292Z,0
2023-01-13T03:34:57.475Z,0
2023-01-13T03:35:57.424Z,0
2023-01-13T03:36:57.639Z,0
2023-01-13T03:37:57.574Z,0
2023-01-13T03:38:58.779Z,0
2023-01-13T03:39:59.727Z,0
2023-01-13T03:40:59.940Z,0
2023-01-13T03:41:59.899Z,0
2023-01-13T03:43:00.852Z,0
2023-01-13T03:44:01.787Z,0
2023-01-13T03:45:03.134Z,0
2023-01-13T03:46:03.100Z,0
2023-01-13T03:47:04.102Z,0
2023-01-13T03:48:05.373Z,0
2023-01-13T03:49:05.019Z,0
2023-01-13T03:50:05.946Z,0
2023-01-13T03:51:06.290Z,0
2023-01-13T03:52:06.913Z,0
2023-01-13T03:53:08.406Z,0
2023-01-13T03:54:08.642Z,0
2023-01-13T03:55:09.689Z,0
2023-01-13T03:56:10.340Z,0
2023-01-13T03:57:11.281Z,0
2023-01-13T03:58:12.817Z,0
2023-01-13T03:59:12.789Z,0
2023-01-13T04:00:13.419Z,0
2023-01-13T04:01:14.409Z,0
2023-01-13T04:02:15.871Z,0
2023-01-13T04:03:14.891Z,0
2023-01-13T04:04:16.130Z,0
2023-01-13T04:05:16.197Z,0
2023-01-13T04:06:17.704Z,0
2023-01-13T04:07:18.105Z,0
2023-01-13T04:08:18.299Z,0
2023-01-13T04:09:17.918Z,0
2023-01-13T04:10:19.004Z,0
2023-01-13T04:11:19.148Z,0
2023-01-13T04:12:20.071Z,0
2023-01-13T04:13:20.278Z,0
2023-01-13T04:14:20.483Z,0
2023-01-13T04:15:21.582Z,0
2023-01-13T04:16:22.300Z,0
2023-01-13T04:17:22.231Z,0
2023-01-13T04:18:23.487Z,0
2023-01-13T04:19:23.699Z,0
2023-01-13T04:20:24.354Z,0
2023-01-13T04:21:24.738Z,0
2023-01-13T04:22:25.946Z,0
2023-01-13T04:23:25.891Z,0
2023-01-13T04:24:26.396Z,0
2023-01-13T04:25:27.035Z,0
2023-01-13T04:26:26.989Z,0
2023-01-13T04:27:28.194Z,0
2023-01-13T04:28:29.443Z,0
2023-01-13T04:29:32.524Z,0
2023-01-13T04:30:30.539Z,0
2023-01-13T04:31:31.183Z,0
2023-01-13T04:32:30.815Z,0
2023-01-13T04:33:32.366Z,0
2023-01-13T04:34:33.639Z,0
2023-01-13T04:35:32.817Z,0
2023-01-13T04:36:32.818Z,0
2023-01-13T04:37:33.798Z,0
2023-01-13T04:38:34.025Z,0
2023-01-13T04:39:34.534Z,0
2023-01-13T04:40:34.480Z,0
2023-01-13T04:41:34.682Z,0
2023-01-13T04:42:34.893Z,0
2023-01-13T04:43:35.547Z,0
2023-01-13T04:44:36.799Z,0
2023-01-13T04:45:37.556Z,0
2023-01-13T04:46:37.401Z,0
2023-01-13T04:47:38.610Z,0
2023-01-13T04:48:38.244Z,0
2023-01-13T04:49:39.205Z,0
2023-01-13T04:50:39.808Z,0
2023-01-13T04:51:39.756Z,0
2023-01-13T04:52:40.729Z,0
2023-01-13T04:53:41.376Z,0
2023-01-13T04:54:42.598Z,0
2023-01-13T04:55:42.344Z,0
2023-01-13T04:56:43.263Z,0
2023-01-13T04:57:44.176Z,0
2023-01-13T04:58:43.846Z,0
2023-01-13T04:59:45.542Z,0
2023-01-13T05:00:45.849Z,0
2023-01-13T05:01:46.513Z,0
2023-01-13T05:02:46.233Z,0
2023-01-13T05:03:47.155Z,0
2023-01-13T05:04:47.266Z,0
2023-01-13T05:05:47.746Z,0
2023-01-13T05:06:48.103Z,0
2023-01-13T05:07:49.047Z,0
2023-01-13T05:08:50.004Z,0
2023-01-13T05:09:49.923Z,0
2023-01-13T05:10:50.897Z,0
2023-01-13T05:11:52.097Z,0
2023-01-13T05:12:51.750Z,0
2023-01-13T05:13:52.669Z,0
2023-01-13T05:14:53.346Z,0
2023-01-13T05:15:54.561Z,0
2023-01-13T05:16:55.081Z,0
2023-01-13T05:17:55.036Z,0
2023-01-13T05:18:55.974Z,0
2023-01-13T05:19:56.358Z,0
2023-01-13T05:20:57.299Z,0
2023-01-13T05:21:57.919Z,0
2023-01-13T05:22:59.419Z,0
2023-01-13T05:23:59.371Z,0
2023-01-13T05:25:00.051Z,0
2023-01-13T05:26:01.387Z,0
2023-01-13T05:27:00.326Z,0
2023-01-13T05:28:01.236Z,0
2023-01-13T05:29:02.157Z,0
2023-01-13T05:30:03.112Z,0
2023-01-13T05:31:04.066Z,0
2023-01-13T05:32:03.695Z,0
2023-01-13T05:33:04.933Z,0
2023-01-13T05:34:05.192Z,0
2023-01-13T05:35:05.561Z,0
2023-01-13T05:36:06.874Z,0
2023-01-13T05:37:06.501Z,0
2023-01-13T05:38:07.424Z,0
2023-01-13T05:39:08.654Z,0
2023-01-13T05:40:08.595Z,0
2023-01-13T05:41:10.508Z,0
2023-01-13T05:42:09.699Z,0
2023-01-13T05:43:09.885Z,0
2023-01-13T05:44:10.370Z,0
2023-01-13T05:45:10.605Z,0
2023-01-13T05:46:11.701Z,0
2023-01-13T05:47:11.962Z,0
2023-01-13T05:48:11.903Z,0
2023-01-13T05:49:13.410Z,0
2023-01-13T05:50:13.353Z,0
2023-01-13T05:51:14.070Z,0
2023-01-13T05:52:15.007Z,0
2023-01-13T05:53:15.358Z,0
2023-01-13T05:54:16.273Z,0
2023-01-13T05:55:17.207Z,0
2023-01-13T05:56:17.500Z,0
2023-01-13T05:57:17.393Z,0
2023-01-13T05:58:18.593Z,0
2023-01-13T05:59:19.558Z,0
2023-01-13T06:00:20.265Z,0
2023-01-13T06:01:21.982Z,0
2023-01-13T06:02:21.639Z,0
2023-01-13T06:03:23.268Z,0
2023-01-13T06:04:23.259Z,0
2023-01-13T06:05:23.765Z,0
2023-01-13T06:06:24.106Z,0
2023-01-13T06:07:24.321Z,0
2023-01-13T06:08:23.972Z,0
2023-01-13T06:09:24.894Z,0
2023-01-13T06:10:26.116Z,0
2023-01-13T06:11:26.784Z,0
2023-01-13T06:12:27.697Z,0
2023-01-13T06:13:28.919Z,0
2023-01-13T06:14:29.172Z,0
2023-01-13T06:15:29.854Z,0
2023-01-13T06:16:30.915Z,0
2023-01-13T06:17:31.418Z,0
2023-01-13T06:18:31.341Z,0
2023-01-13T06:19:32.865Z,0
2023-01-13T06:20:33.721Z,0
2023-01-13T06:21:33.640Z,0
2023-01-13T06:22:34.877Z,0
2023-01-13T06:23:35.137Z,0
2023-01-13T06:24:35.797Z,0
2023-01-13T06:25:36.470Z,0
2023-01-13T06:26:37.257Z,0
2023-01-13T06:27:38.513Z,0
2023-01-13T06:28:37.889Z,0
2023-01-13T06:29:39.129Z,0
2023-01-13T06:30:40.174Z,0
2023-01-13T06:31:41.091Z,0
2023-01-13T06:32:41.159Z,0
2023-01-13T06:33:42.379Z,0
2023-01-13T06:34:42.309Z,0
2023-01-13T06:35:43.216Z,0
2023-01-13T06:36:43.709Z,0
2023-01-13T06:37:44.627Z,0
2023-01-13T06:38:46.123Z,0
2023-01-13T06:39:46.335Z,0
2023-01-13T06:40:47.314Z,0
2023-01-13T06:41:47.808Z,0
2023-01-13T06:42:47.477Z,0
2023-01-13T06:43:48.441Z,0
2023-01-13T06:44:49.686Z,0
2023-01-13T06:45:49.741Z,0
2023-01-13T06:46:50.660Z,0
2023-01-13T06:47:50.920Z,0
2023-01-13T06:48:51.879Z,0
2023-01-13T06:49:52.109Z,0
2023-01-13T06:50:52.046Z,0
2023-01-13T06:51:53.293Z,0
2023-01-13T06:52:53.782Z,0
2023-01-13T06:53:53.415Z,0
2023-01-13T06:54:54.627Z,0
2023-01-13T06:55:54.566Z,0
2023-01-13T06:56:55.565Z,0
2023-01-13T06:57:55.791Z,0
2023-01-13T06:58:55.884Z,0
2023-01-13T06:59:57.086Z,0
2023-01-13T07:00:58.248Z,0
2023-01-13T07:01:59.893Z,0
2023-01-13T07:02:59.774Z,0
2023-01-13T07:04:00.076Z,0
2023-01-13T07:05:00.010Z,0
2023-01-13T07:06:01.621Z,0
2023-01-13T07:07:01.669Z,0
2023-01-13T07:08:02.365Z,0
2023-01-13T07:09:04.249Z,0
2023-01-13T07:10:03.665Z,0
2023-01-13T07:11:03.776Z,0
2023-01-13T07:12:04.005Z,0
2023-01-13T07:13:04.632Z,0
2023-01-13T07:14:05.559Z,0
2023-01-13T07:15:06.063Z,0
2023-01-13T07:16:06.170Z,0
2023-01-13T07:17:07.557Z,0
2023-01-13T07:18:07.489Z,0
2023-01-13T07:19:08.992Z,0
2023-01-13T07:20:09.215Z,0
2023-01-13T07:21:09.481Z,0
2023-01-13T07:22:10.119Z,0
2023-01-13T07:23:11.077Z,0
2023-01-13T07:24:12.034Z,0
2023-01-13T07:25:12.998Z,0
2023-01-13T07:26:13.550Z,0
2023-01-13T07:27:13.900Z,0
2023-01-13T07:28:13.976Z,0
2023-01-13T07:29:15.919Z,0
2023-01-13T07:30:16.454Z,0
2023-01-13T07:31:16.564Z,0
2023-01-13T07:32:17.379Z,0
2023-01-13T07:33:17.305Z,0
2023-01-13T07:34:19.240Z,0
2023-01-13T07:35:19.184Z,0
2023-01-13T07:36:19.787Z,0
2023-01-13T07:37:20.105Z,5.63
2023-01-13T07:38:20.623Z,5.63
2023-01-13T07:39:21.144Z,5.63
2023-01-13T07:40:21.346Z,5.63
2023-01-13T07:41:21.285Z,5.63
2023-01-13T07:42:21.945Z,5.63
2023-01-13T07:43:22.676Z,5.63
2023-01-13T07:44:23.635Z,5.63
2023-01-13T07:45:27.307Z,5.63
2023-01-13T07:46:25.501Z,5.63
2023-01-13T07:47:26.259Z,5.63
2023-01-13T07:48:26.782Z,5.63
2023-01-13T07:49:26.713Z,5.63
2023-01-13T07:50:27.970Z,5.63
2023-01-13T07:51:28.226Z,5.63
2023-01-13T07:52:29.148Z,11.25
2023-01-13T07:53:29.372Z,11.25
2023-01-13T07:54:46.423Z,11.25
2023-01-13T07:55:30.616Z,11.25
2023-01-13T07:56:31.295Z,11.25
2023-01-13T07:57:31.862Z,11.25
2023-01-13T07:58:31.547Z,11.25
2023-01-13T07:59:32.768Z,11.25
2023-01-13T08:00:33.827Z,11.25
2023-01-13T08:01:35.650Z,11.25
2023-01-13T08:02:37.081Z,11.25
2023-01-13T08:03:36.615Z,11.25
2023-01-13T08:04:36.270Z,11.25
2023-01-13T08:05:37.591Z,11.25
2023-01-13T08:06:37.554Z,16.88
2023-01-13T08:07:38.606Z,16.88
2023-01-13T08:08:39.855Z,16.88
2023-01-13T08:09:40.098Z,16.88
2023-01-13T08:10:40.047Z,16.88
2023-01-13T08:11:40.968Z,16.88
2023-01-13T08:12:40.910Z,16.88
2023-01-13T08:13:42.238Z,16.88
2023-01-13T08:14:42.146Z,16.88
2023-01-13T08:15:43.714Z,16.88
2023-01-13T08:16:43.611Z,16.88
2023-01-13T08:17:44.337Z,16.88
2023-01-13T08:18:44.832Z,16.88
2023-01-13T08:19:45.322Z,16.88
2023-01-13T08:20:45.555Z,16.88
2023-01-13T08:21:45.487Z,16.88
2023-01-13T08:22:46.465Z,16.88
2023-01-13T08:23:47.410Z,16.88
2023-01-13T08:24:48.646Z,16.88
2023-01-13T08:25:48.598Z,16.88
2023-01-13T08:26:49.128Z,16.88
2023-01-13T08:27:49.788Z,22.5
2023-01-13T08:28:49.568Z,22.5
2023-01-13T08:29:50.204Z,22.5
2023-01-13T08:30:51.551Z,22.5
2023-01-13T08:31:52.286Z,22.5
2023-01-13T08:32:53.613Z,22.5
2023-01-13T08:33:53.645Z,22.5
2023-01-13T08:34:54.853Z,22.5
2023-01-13T08:35:55.073Z,28.13
2023-01-13T08:36:56.308Z,28.13
2023-01-13T08:37:56.639Z,28.13
2023-01-13T08:38:57.418Z,28.13
2023-01-13T08:39:58.715Z,28.13
2023-01-13T08:40:59.377Z,28.13
2023-01-13T08:42:00.338Z,28.13
2023-01-13T08:43:03.402Z,28.13
2023-01-13T08:44:01.507Z,28.13
2023-01-13T08:45:02.055Z,33.75
2023-01-13T08:46:02.570Z,33.75
2023-01-13T08:47:03.163Z,39.38
2023-01-13T08:48:03.975Z,39.38
2023-01-13T08:49:04.195Z,39.38
2023-01-13T08:50:04.202Z,39.38
2023-01-13T08:51:05.750Z,39.38
2023-01-13T08:52:05.687Z,39.38
2023-01-13T08:53:06.649Z,33.75
2023-01-13T08:54:07.725Z,33.75
2023-01-13T08:55:08.705Z,33.75
2023-01-13T08:56:09.955Z,33.75
2023-01-13T08:57:10.764Z,33.75
2023-01-13T08:58:27.152Z,28.13
2023-01-13T08:59:11.659Z,28.13
2023-01-13T09:00:12.227Z,28.13
2023-01-13T09:01:13.329Z,28.13
2023-01-13T09:02:14.608Z,28.13
2023-01-13T09:03:14.317Z,28.13
2023-01-13T09:04:14.816Z,28.13
2023-01-13T09:05:17.576Z,28.13
2023-01-13T09:06:15.928Z,28.13
2023-01-13T09:07:16.468Z,28.13
2023-01-13T09:08:16.919Z,28.13
2023-01-13T09:09:17.432Z,28.13
2023-01-13T09:10:17.378Z,28.13
2023-01-13T09:11:18.596Z,28.13
2023-01-13T09:12:19.533Z,28.13
2023-01-13T09:13:20.189Z,28.13
2023-01-13T09:14:21.230Z,28.13
2023-01-13T09:15:22.163Z,28.13
2023-01-13T09:16:23.932Z,28.13
2023-01-13T09:17:23.931Z,28.13
2023-01-13T09:18:25.345Z,28.13
2023-01-13T09:19:25.563Z,28.13
2023-01-13T09:20:26.812Z,28.13
2023-01-13T09:21:26.801Z,22.5
2023-01-13T09:22:27.750Z,22.5
2023-01-13T09:23:28.615Z,22.5
2023-01-13T09:24:28.884Z,22.5
2023-01-13T09:25:29.479Z,22.5
2023-01-13T09:26:29.731Z,22.5
2023-01-13T09:27:30.250Z,22.5
2023-01-13T09:28:30.897Z,22.5
2023-01-13T09:29:31.031Z,22.5
2023-01-13T09:30:31.623Z,22.5
2023-01-13T09:31:32.377Z,22.5
2023-01-13T09:32:32.820Z,22.5
2023-01-13T09:33:33.529Z,22.5
2023-01-13T09:34:33.852Z,22.5
2023-01-13T09:35:34.126Z,28.13
2023-01-13T09:36:34.432Z,28.13
2023-01-13T09:37:35.259Z,28.13
2023-01-13T09:38:35.837Z,33.75
2023-01-13T09:39:36.412Z,33.75
2023-01-13T09:40:37.054Z,33.75
2023-01-13T09:41:37.388Z,33.75
2023-01-13T09:42:37.611Z,33.75
2023-01-13T09:43:38.193Z,33.75
2023-01-13T09:44:38.163Z,33.75
2023-01-13T09:45:39.734Z,33.75
2023-01-13T09:46:40.072Z,33.75
2023-01-13T09:47:40.652Z,39.38
2023-01-13T09:48:40.899Z,39.38
2023-01-13T09:49:41.207Z,39.38
2023-01-13T09:50:42.153Z,39.38
2023-01-13T09:51:42.714Z,39.38
2023-01-13T09:52:43.264Z,39.38
2023-01-13T09:53:43.772Z,45
2023-01-13T09:54:44.395Z,45
2023-01-13T09:55:44.602Z,50.63
2023-01-13T09:56:44.867Z,56.25
2023-01-13T09:57:45.126Z,56.25
2023-01-13T09:58:46.175Z,56.25
2023-01-13T09:59:47.148Z,67.5
2023-01-13T10:00:46.857Z,78.75
2023-01-13T10:01:47.834Z,84.38
2023-01-13T10:02:49.366Z,90
2023-01-13T10:03:50.556Z,90
2023-01-13T10:04:49.720Z,95.63
2023-01-13T10:05:50.031Z,123.75
2023-01-13T10:06:50.581Z,196.88
2023-01-13T10:07:51.451Z,309.38
2023-01-13T10:08:51.551Z,180
2023-01-13T10:09:52.498Z,219.38
2023-01-13T10:10:53.733Z,174.38
2023-01-13T10:11:54.232Z,213.75
2023-01-13T10:12:54.463Z,270
2023-01-13T10:13:54.724Z,168.75
2023-01-13T10:14:54.936Z,151.88
2023-01-13T10:15:55.789Z,258.75
2023-01-13T10:16:56.077Z,157.5
2023-01-13T10:17:57.631Z,135
2023-01-13T10:18:58.025Z,135
2023-01-13T10:19:58.539Z,129.38
2023-01-13T10:20:58.191Z,140.63
2023-01-13T10:21:59.426Z,140.63
2023-01-13T10:23:00.705Z,146.25
2023-01-13T10:24:00.917Z,151.88
2023-01-13T10:25:01.853Z,174.38
2023-01-13T10:26:02.539Z,129.38
2023-01-13T10:27:02.781Z,123.75
2023-01-13T10:28:03.052Z,123.75
2023-01-13T10:29:03.201Z,146.25
2023-01-13T10:30:04.458Z,123.75
2023-01-13T10:31:05.209Z,163.13
2023-01-13T10:32:05.180Z,106.88
2023-01-13T10:33:06.133Z,95.63
2023-01-13T10:34:07.731Z,84.38
2023-01-13T10:35:08.244Z,73.13
2023-01-13T10:36:08.781Z,67.5
2023-01-13T10:37:09.019Z,61.88
2023-01-13T10:38:10.294Z,61.88
2023-01-13T10:39:10.608Z,61.88
2023-01-13T10:40:11.121Z,61.88
2023-01-13T10:41:11.391Z,61.88
2023-01-13T10:42:11.666Z,67.5
2023-01-13T10:43:12.122Z,67.5
2023-01-13T10:44:15.043Z,61.88
2023-01-13T10:45:13.350Z,61.88
2023-01-13T10:46:13.789Z,56.25
2023-01-13T10:47:13.778Z,61.88
2023-01-13T10:48:15.326Z,56.25
2023-01-13T10:49:16.073Z,50.63
2023-01-13T10:50:17.303Z,50.63
2023-01-13T10:51:16.587Z,56.25
2023-01-13T10:52:16.765Z,67.5
2023-01-13T10:53:17.354Z,67.5
2023-01-13T10:54:17.869Z,50.63
2023-01-13T10:55:18.483Z,45
2023-01-13T10:56:18.422Z,50.63
2023-01-13T10:57:19.429Z,56.25
2023-01-13T10:58:19.753Z,61.88
2023-01-13T10:59:19.837Z,45
2023-01-13T11:00:21.353Z,33.75
2023-01-13T11:01:21.540Z,33.75
2023-01-13T11:02:41.781Z,33.75
2023-01-13T11:03:22.199Z,39.38
2023-01-13T11:04:22.968Z,45
2023-01-13T11:05:23.730Z,45
2023-01-13T11:06:24.366Z,56.25
2023-01-13T11:07:25.811Z,106.88
2023-01-13T11:08:25.402Z,849.38
2023-01-13T11:09:26.078Z,1057.5
2023-01-13T11:10:26.298Z,939.38
2023-01-13T11:11:27.537Z,191.25
2023-01-13T11:12:27.500Z,247.5
2023-01-13T11:13:28.064Z,731.25
2023-01-13T11:14:28.005Z,489.38
2023-01-13T11:15:29.549Z,450
2023-01-13T11:16:30.616Z,450
2023-01-13T11:17:30.603Z,140.63
2023-01-13T11:18:30.876Z,95.63
2023-01-13T11:19:31.677Z,106.88
2023-01-13T11:20:31.628Z,90
2023-01-13T11:21:32.894Z,84.38
2023-01-13T11:22:32.841Z,90
2023-01-13T11:23:34.052Z,90
2023-01-13T11:24:34.752Z,67.5
2023-01-13T11:25:35.756Z,50.63
2023-01-13T11:26:35.674Z,45
2023-01-13T11:27:36.324Z,50.63
2023-01-13T11:28:37.826Z,45
2023-01-13T11:29:37.908Z,45
2023-01-13T11:30:39.128Z,45
2023-01-13T11:31:39.668Z,50.63
2023-01-13T11:32:39.993Z,67.5
2023-01-13T11:33:41.233Z,73.13
2023-01-13T11:34:41.621Z,56.25
2023-01-13T11:35:42.105Z,56.25
2023-01-13T11:36:42.021Z,45
2023-01-13T11:37:42.957Z,39.38
2023-01-13T11:38:44.189Z,39.38
2023-01-13T11:39:44.958Z,50.63
2023-01-13T11:40:44.915Z,56.25
2023-01-13T11:41:46.514Z,56.25
2023-01-13T11:42:47.826Z,67.5
2023-01-13T11:43:47.062Z,73.13
2023-01-13T11:44:47.590Z,163.13
2023-01-13T11:45:47.841Z,61.88
2023-01-13T11:46:49.388Z,838.13
2023-01-13T11:47:49.316Z,534.38
2023-01-13T11:48:50.033Z,225
2023-01-13T11:49:51.457Z,258.75
2023-01-13T11:50:52.085Z,781.88
2023-01-13T11:51:52.324Z,534.38
2023-01-13T11:52:52.580Z,534.38
2023-01-13T11:53:52.518Z,1170
2023-01-13T11:54:53.745Z,1383.75
2023-01-13T11:55:53.969Z,1440
2023-01-13T11:56:54.915Z,1068.75
2023-01-13T11:57:55.134Z,146.25
2023-01-13T11:59:06.861Z,112.5
2023-01-13T11:59:54.916Z,90
2023-01-13T12:00:55.160Z,73.13
2023-01-13T12:01:56.528Z,67.5
2023-01-13T12:02:57.044Z,90
2023-01-13T12:03:57.325Z,129.38
2023-01-13T12:04:58.011Z,388.13
2023-01-13T12:05:58.526Z,225
2023-01-13T12:06:58.768Z,303.75
2023-01-13T12:07:59.265Z,146.25
2023-01-13T12:08:59.201Z,168.75
2023-01-13T12:10:00.728Z,151.88
2023-01-13T12:11:01.279Z,123.75
2023-01-13T12:12:01.569Z,106.88
2023-01-13T12:13:03.835Z,56.25
2023-01-13T12:14:02.055Z,50.63
2023-01-13T12:15:03.099Z,50.63
2023-01-13T12:16:03.365Z,56.25
2023-01-13T12:17:06.731Z,61.88
2023-01-13T12:18:04.684Z,61.88
2023-01-13T12:19:04.932Z,61.88
2023-01-13T12:20:05.680Z,61.88
2023-01-13T12:21:06.189Z,73.13
2023-01-13T12:22:06.441Z,78.75
2023-01-13T12:23:06.670Z,90
2023-01-13T12:24:07.182Z,73.13
2023-01-13T12:25:07.117Z,61.88
2023-01-13T12:26:08.561Z,50.63
2023-01-13T12:27:08.243Z,50.63
2023-01-13T12:28:09.191Z,67.5
2023-01-13T12:29:10.911Z,73.13
2023-01-13T12:30:11.579Z,61.88
2023-01-13T12:31:11.819Z,61.88
2023-01-13T12:32:12.369Z,67.5
2023-01-13T12:33:12.636Z,61.88
2023-01-13T12:34:13.379Z,61.88
2023-01-13T12:35:14.815Z,67.5
2023-01-13T12:36:14.784Z,84.38
2023-01-13T12:37:16.250Z,90
2023-01-13T12:38:16.509Z,95.63
2023-01-13T12:39:16.770Z,84.38
2023-01-13T12:40:17.224Z,84.38
2023-01-13T12:41:18.442Z,118.13
2023-01-13T12:42:18.756Z,90
2023-01-13T12:43:18.986Z,73.13
2023-01-13T12:44:19.235Z,56.25
2023-01-13T12:45:21.234Z,50.63
2023-01-13T12:46:20.823Z,45
2023-01-13T12:47:20.903Z,45
2023-01-13T12:48:21.129Z,39.38
2023-01-13T12:49:21.563Z,28.13
2023-01-13T12:50:22.232Z,22.5
2023-01-13T12:51:23.479Z,22.5
2023-01-13T12:52:22.796Z,22.5
2023-01-13T12:53:22.725Z,28.13
2023-01-13T12:54:23.411Z,28.13
2023-01-13T12:55:24.960Z,33.75
2023-01-13T12:56:24.372Z,33.75
2023-01-13T12:57:25.573Z,39.38
2023-01-13T12:58:25.795Z,39.38
2023-01-13T12:59:25.742Z,39.38
2023-01-13T13:00:27.031Z,33.75
2023-01-13T13:01:27.979Z,28.13
2023-01-13T13:02:29.222Z,28.13
2023-01-13T13:03:31.099Z,28.13
2023-01-13T13:04:30.099Z,22.5
2023-01-13T13:05:30.716Z,22.5
2023-01-13T13:06:31.271Z,22.5
2023-01-13T13:07:31.496Z,28.13
2023-01-13T13:08:31.744Z,39.38
2023-01-13T13:09:32.289Z,45
2023-01-13T13:10:32.473Z,50.63
2023-01-13T13:11:33.991Z,45
2023-01-13T13:12:34.381Z,39.38
2023-01-13T13:13:34.626Z,33.75
2023-01-13T13:14:36.101Z,33.75
2023-01-13T13:15:36.434Z,28.13
2023-01-13T13:16:37.919Z,28.13
2023-01-13T13:17:38.298Z,33.75
2023-01-13T13:18:39.003Z,39.38
2023-01-13T13:19:40.095Z,33.75
2023-01-13T13:20:41.662Z,33.75
2023-01-13T13:21:42.157Z,33.75
2023-01-13T13:22:42.377Z,39.38
2023-01-13T13:23:42.090Z,50.63
2023-01-13T13:24:43.339Z,73.13
2023-01-13T13:25:43.582Z,123.75
2023-01-13T13:26:44.816Z,106.88
2023-01-13T13:27:45.049Z,123.75
2023-01-13T13:28:45.278Z,78.75
2023-01-13T13:29:45.504Z,78.75
2023-01-13T13:30:45.924Z,73.13
2023-01-13T13:31:46.317Z,61.88
2023-01-13T13:32:47.872Z,50.63
2023-01-13T13:33:50.222Z,39.38
2023-01-13T13:34:48.456Z,39.38
2023-01-13T13:35:49.799Z,39.38
2023-01-13T13:36:52.719Z,33.75
2023-01-13T13:37:50.732Z,33.75
2023-01-13T13:38:51.682Z,22.5
2023-01-13T13:39:53.359Z,22.5
2023-01-13T13:40:53.026Z,33.75
2023-01-13T13:41:53.228Z,39.38
2023-01-13T13:42:54.217Z,33.75
2023-01-13T13:43:54.193Z,33.75
2023-01-13T13:44:55.167Z,45
2023-01-13T13:45:56.620Z,61.88
2023-01-13T13:46:56.631Z,56.25
2023-01-13T13:47:58.422Z,50.63
2023-01-13T13:48:58.683Z,50.63
2023-01-13T13:49:58.948Z,45
2023-01-13T13:50:59.776Z,39.38
2023-01-13T13:52:00.496Z,28.13
2023-01-13T13:53:00.764Z,28.13
2023-01-13T13:54:00.688Z,28.13
2023-01-13T13:55:01.423Z,28.13
2023-01-13T13:56:02.746Z,22.5
2023-01-13T13:57:03.021Z,22.5
2023-01-13T13:58:03.590Z,22.5
2023-01-13T13:59:04.097Z,28.13
2023-01-13T14:00:04.373Z,33.75
2023-01-13T14:01:05.483Z,39.38
2023-01-13T14:02:07.604Z,45
2023-01-13T14:03:06.965Z,39.38